ESSA/ARN METAR and TAF weather

Enter ICAO airport designator
Station Type Date Time Source
ESSA METAR 2022/12/04 04:50 UTC NOAA

ESSA 040450Z 36003KT 9999 BKN024 M02/M02 Q1033 NOSIG


Station Type Date Time Source
ESSA Decoded METAR 2022/12/04 04:50 UTC NOAA

Stockholm / Arlanda, Sweden (ESSA) 59-39N 017-57E 61M
Dec 03, 2022 - 11:50 PM EST / 2022.12.04 0450 UTC
Wind: from the N (360 degrees) at 3 MPH (3 KT):0
Visibility: greater than 7 mile(s):0
Sky conditions: mostly cloudy
Temperature: 28 F (-2 C)
Dew Point: 28 F (-2 C)
Relative Humidity: 100%
Pressure (altimeter): 30.50 in. Hg (1033 hPa)
ob: ESSA 040450Z 36003KT 9999 BKN024 M02/M02 Q1033 NOSIG
cycle: 5

Station Type Date Time Source
ESSA TAF 2022/12/04 03:12 UTC NOAA

TAF ESSA 040230Z 0403/0503 03001KT 9999 BKN025 PROB40 0403/0412 BKN014 PROB40 0418/0503 BKN004

Example: see airport list